Terminal Aerodrome Forecast
Issued by NWS

Home | Current Version | Previous Version | Text Only | Print | Product List | Glossary On
Versions: 1 2 3 4 5 6 7 8 9 10 11 12 13 14
735
FTUS43 KDVN 152320
TAFBRL
TAF
KBRL 152320Z 1600/1624 30013KT P6SM BKN025
     FM161000 30008KT P6SM OVC018
     FM162000 31010KT P6SM BKN035=

USA.gov is the U.S. government's official web portal to all federal, state and local government web resources and services.